sensor_id;sensor_type;location;lat;lon;timestamp;P1;durP1;ratioP1;P2;durP2;ratioP2
54929;SDS011;40833;53.238;6.576;2022-08-21T00:00:52;7.27;;;2.20;;
54929;SDS011;40833;53.238;6.576;2022-08-21T00:03:17;8.50;;;1.87;;
54929;SDS011;40833;53.238;6.576;2022-08-21T00:05:45;5.87;;;1.90;;
54929;SDS011;40833;53.238;6.576;2022-08-21T00:08:15;4.57;;;1.17;;
54929;SDS011;40833;53.238;6.576;2022-08-21T00:10:45;7.60;;;1.57;;
54929;SDS011;40833;53.238;6.576;2022-08-21T00:13:12;8.70;;;1.80;;
54929;SDS011;40833;53.238;6.576;2022-08-21T00:15:39;6.80;;;2.60;;
54929;SDS011;40833;53.238;6.576;2022-08-21T00:18:06;7.17;;;2.03;;
54929;SDS011;40833;53.238;6.576;2022-08-21T00:20:33;6.60;;;1.80;;
54929;SDS011;40833;53.238;6.576;2022-08-21T00:22:59;9.17;;;2.23;;
54929;SDS011;40833;53.238;6.576;2022-08-21T00:25:25;9.70;;;2.00;;
54929;SDS011;40833;53.238;6.576;2022-08-21T00:27:51;8.13;;;2.23;;
54929;SDS011;40833;53.238;6.576;2022-08-21T00:30:17;5.97;;;2.00;;
54929;SDS011;40833;53.238;6.576;2022-08-21T00:32:44;8.27;;;1.70;;
54929;SDS011;40833;53.238;6.576;2022-08-21T00:35:11;6.90;;;2.30;;
54929;SDS011;40833;53.238;6.576;2022-08-21T00:37:39;8.37;;;2.10;;
54929;SDS011;40833;53.238;6.576;2022-08-21T00:40:06;8.23;;;2.20;;
54929;SDS011;40833;53.238;6.576;2022-08-21T00:42:36;5.93;;;1.93;;
54929;SDS011;40833;53.238;6.576;2022-08-21T00:45:03;9.53;;;2.70;;
54929;SDS011;40833;53.238;6.576;2022-08-21T00:47:29;10.13;;;2.27;;
54929;SDS011;40833;53.238;6.576;2022-08-21T00:49:55;5.50;;;2.03;;
54929;SDS011;40833;53.238;6.576;2022-08-21T00:52:22;12.87;;;2.20;;
54929;SDS011;40833;53.238;6.576;2022-08-21T00:54:51;6.63;;;2.63;;
54929;SDS011;40833;53.238;6.576;2022-08-21T00:57:29;7.03;;;2.03;;
54929;SDS011;40833;53.238;6.576;2022-08-21T01:00:00;9.23;;;2.10;;
54929;SDS011;40833;53.238;6.576;2022-08-21T01:02:28;6.67;;;1.80;;
54929;SDS011;40833;53.238;6.576;2022-08-21T01:04:54;11.73;;;2.00;;
54929;SDS011;40833;53.238;6.576;2022-08-21T01:07:20;8.07;;;2.13;;
54929;SDS011;40833;53.238;6.576;2022-08-21T01:09:46;7.30;;;2.20;;
54929;SDS011;40833;53.238;6.576;2022-08-21T01:12:12;6.17;;;2.30;;
54929;SDS011;40833;53.238;6.576;2022-08-21T01:14:39;6.83;;;2.37;;
54929;SDS011;40833;53.238;6.576;2022-08-21T01:17:07;6.57;;;2.80;;
54929;SDS011;40833;53.238;6.576;2022-08-21T01:19:33;8.27;;;2.67;;
54929;SDS011;40833;53.238;6.576;2022-08-21T01:21:59;9.33;;;2.63;;
54929;SDS011;40833;53.238;6.576;2022-08-21T01:24:25;5.90;;;2.57;;
54929;SDS011;40833;53.238;6.576;2022-08-21T01:26:51;9.23;;;2.20;;
54929;SDS011;40833;53.238;6.576;2022-08-21T01:29:38;8.23;;;2.40;;
54929;SDS011;40833;53.238;6.576;2022-08-21T01:32:10;7.33;;;2.33;;
54929;SDS011;40833;53.238;6.576;2022-08-21T01:34:40;6.80;;;2.35;;
54929;SDS011;40833;53.238;6.576;2022-08-21T01:37:08;8.67;;;2.10;;
54929;SDS011;40833;53.238;6.576;2022-08-21T01:39:35;5.63;;;2.23;;
54929;SDS011;40833;53.238;6.576;2022-08-21T01:42:01;10.67;;;2.53;;
54929;SDS011;40833;53.238;6.576;2022-08-21T01:44:27;8.70;;;3.00;;
54929;SDS011;40833;53.238;6.576;2022-08-21T01:46:53;7.80;;;2.67;;
54929;SDS011;40833;53.238;6.576;2022-08-21T01:49:20;8.40;;;2.80;;
54929;SDS011;40833;53.238;6.576;2022-08-21T01:51:46;6.40;;;2.57;;
54929;SDS011;40833;53.238;6.576;2022-08-21T01:54:12;7.00;;;2.70;;
54929;SDS011;40833;53.238;6.576;2022-08-21T01:56:38;5.20;;;2.20;;
54929;SDS011;40833;53.238;6.576;2022-08-21T01:59:06;12.50;;;2.73;;
54929;SDS011;40833;53.238;6.576;2022-08-21T02:01:32;11.20;;;2.30;;
54929;SDS011;40833;53.238;6.576;2022-08-21T02:03:58;14.57;;;3.13;;
54929;SDS011;40833;53.238;6.576;2022-08-21T02:06:25;10.07;;;2.60;;
54929;SDS011;40833;53.238;6.576;2022-08-21T02:08:51;10.63;;;2.80;;
54929;SDS011;40833;53.238;6.576;2022-08-21T02:11:18;6.20;;;2.10;;
54929;SDS011;40833;53.238;6.576;2022-08-21T02:13:47;8.27;;;2.53;;
54929;SDS011;40833;53.238;6.576;2022-08-21T02:16:13;6.40;;;2.67;;
54929;SDS011;40833;53.238;6.576;2022-08-21T02:18:39;9.10;;;2.50;;
54929;SDS011;40833;53.238;6.576;2022-08-21T02:21:05;9.87;;;2.70;;
54929;SDS011;40833;53.238;6.576;2022-08-21T02:23:31;8.27;;;2.70;;
54929;SDS011;40833;53.238;6.576;2022-08-21T02:25:58;10.23;;;3.30;;
54929;SDS011;40833;53.238;6.576;2022-08-21T02:28:28;8.27;;;2.57;;
54929;SDS011;40833;53.238;6.576;2022-08-21T02:30:55;11.43;;;2.70;;
54929;SDS011;40833;53.238;6.576;2022-08-21T02:33:21;9.87;;;3.00;;
54929;SDS011;40833;53.238;6.576;2022-08-21T02:35:47;10.47;;;2.87;;
54929;SDS011;40833;53.238;6.576;2022-08-21T02:38:16;11.30;;;3.20;;
54929;SDS011;40833;53.238;6.576;2022-08-21T02:40:44;7.17;;;3.00;;
54929;SDS011;40833;53.238;6.576;2022-08-21T02:43:12;11.13;;;2.83;;
54929;SDS011;40833;53.238;6.576;2022-08-21T02:45:42;7.07;;;2.80;;
54929;SDS011;40833;53.238;6.576;2022-08-21T02:48:10;10.83;;;2.90;;
54929;SDS011;40833;53.238;6.576;2022-08-21T02:50:39;8.40;;;2.93;;
54929;SDS011;40833;53.238;6.576;2022-08-21T02:53:08;5.73;;;2.57;;
54929;SDS011;40833;53.238;6.576;2022-08-21T02:55:36;9.67;;;2.43;;
54929;SDS011;40833;53.238;6.576;2022-08-21T02:58:05;9.20;;;3.43;;
54929;SDS011;40833;53.238;6.576;2022-08-21T03:00:36;6.73;;;2.80;;
54929;SDS011;40833;53.238;6.576;2022-08-21T03:03:03;8.20;;;3.00;;
54929;SDS011;40833;53.238;6.576;2022-08-21T03:05:30;6.27;;;2.80;;
54929;SDS011;40833;53.238;6.576;2022-08-21T03:07:56;8.97;;;3.00;;
54929;SDS011;40833;53.238;6.576;2022-08-21T03:10:24;10.70;;;3.00;;
54929;SDS011;40833;53.238;6.576;2022-08-21T03:12:50;6.07;;;2.03;;
54929;SDS011;40833;53.238;6.576;2022-08-21T03:15:18;8.87;;;3.10;;
54929;SDS011;40833;53.238;6.576;2022-08-21T03:17:45;9.33;;;2.57;;
54929;SDS011;40833;53.238;6.576;2022-08-21T03:20:12;13.57;;;2.70;;
54929;SDS011;40833;53.238;6.576;2022-08-21T03:22:40;9.23;;;2.60;;
54929;SDS011;40833;53.238;6.576;2022-08-21T03:25:07;7.53;;;2.77;;
54929;SDS011;40833;53.238;6.576;2022-08-21T03:27:34;6.37;;;2.70;;
54929;SDS011;40833;53.238;6.576;2022-08-21T03:30:00;10.53;;;2.93;;
54929;SDS011;40833;53.238;6.576;2022-08-21T03:32:26;6.37;;;2.10;;
54929;SDS011;40833;53.238;6.576;2022-08-21T03:34:52;11.93;;;3.43;;
54929;SDS011;40833;53.238;6.576;2022-08-21T03:37:18;6.57;;;2.30;;
54929;SDS011;40833;53.238;6.576;2022-08-21T03:39:44;7.30;;;2.60;;
54929;SDS011;40833;53.238;6.576;2022-08-21T03:42:10;8.97;;;3.23;;
54929;SDS011;40833;53.238;6.576;2022-08-21T03:44:36;9.47;;;2.60;;
54929;SDS011;40833;53.238;6.576;2022-08-21T03:47:04;7.20;;;2.90;;
54929;SDS011;40833;53.238;6.576;2022-08-21T03:49:30;12.63;;;2.90;;
54929;SDS011;40833;53.238;6.576;2022-08-21T03:51:56;10.00;;;2.60;;
54929;SDS011;40833;53.238;6.576;2022-08-21T03:54:22;6.27;;;2.50;;
54929;SDS011;40833;53.238;6.576;2022-08-21T03:56:48;5.27;;;2.37;;
54929;SDS011;40833;53.238;6.576;2022-08-21T03:59:14;5.83;;;2.20;;
54929;SDS011;40833;53.238;6.576;2022-08-21T04:01:51;11.07;;;2.73;;
54929;SDS011;40833;53.238;6.576;2022-08-21T04:04:18;6.70;;;2.90;;
54929;SDS011;40833;53.238;6.576;2022-08-21T04:06:44;14.63;;;3.27;;
54929;SDS011;40833;53.238;6.576;2022-08-21T04:09:09;8.83;;;3.00;;
54929;SDS011;40833;53.238;6.576;2022-08-21T04:11:35;8.80;;;3.13;;
54929;SDS011;40833;53.238;6.576;2022-08-21T04:14:01;10.90;;;2.70;;
54929;SDS011;40833;53.238;6.576;2022-08-21T04:16:27;8.97;;;3.50;;
54929;SDS011;40833;53.238;6.576;2022-08-21T04:18:53;8.50;;;3.33;;
54929;SDS011;40833;53.238;6.576;2022-08-21T04:21:19;8.40;;;3.07;;
54929;SDS011;40833;53.238;6.576;2022-08-21T04:23:45;9.37;;;3.90;;
54929;SDS011;40833;53.238;6.576;2022-08-21T04:26:10;10.10;;;3.40;;
54929;SDS011;40833;53.238;6.576;2022-08-21T04:28:36;7.67;;;3.43;;
54929;SDS011;40833;53.238;6.576;2022-08-21T04:31:02;6.67;;;2.87;;
54929;SDS011;40833;53.238;6.576;2022-08-21T04:33:27;10.80;;;3.33;;
54929;SDS011;40833;53.238;6.576;2022-08-21T04:35:54;6.37;;;2.83;;
54929;SDS011;40833;53.238;6.576;2022-08-21T04:38:20;10.00;;;2.97;;
54929;SDS011;40833;53.238;6.576;2022-08-21T04:40:45;9.60;;;3.00;;
54929;SDS011;40833;53.238;6.576;2022-08-21T04:43:13;8.87;;;2.73;;
54929;SDS011;40833;53.238;6.576;2022-08-21T04:45:40;10.40;;;3.10;;
54929;SDS011;40833;53.238;6.576;2022-08-21T04:48:11;6.77;;;2.67;;
54929;SDS011;40833;53.238;6.576;2022-08-21T04:50:45;8.00;;;2.93;;
54929;SDS011;40833;53.238;6.576;2022-08-21T04:53:19;10.17;;;2.67;;
54929;SDS011;40833;53.238;6.576;2022-08-21T04:55:52;7.83;;;2.97;;
54929;SDS011;40833;53.238;6.576;2022-08-21T04:58:20;5.83;;;2.60;;
54929;SDS011;40833;53.238;6.576;2022-08-21T05:00:47;6.57;;;2.83;;
54929;SDS011;40833;53.238;6.576;2022-08-21T05:03:13;10.77;;;2.80;;
54929;SDS011;40833;53.238;6.576;2022-08-21T05:05:41;9.97;;;3.33;;
54929;SDS011;40833;53.238;6.576;2022-08-21T05:08:08;10.10;;;2.83;;
54929;SDS011;40833;53.238;6.576;2022-08-21T05:10:39;14.80;;;3.27;;
54929;SDS011;40833;53.238;6.576;2022-08-21T05:13:06;7.70;;;2.87;;
54929;SDS011;40833;53.238;6.576;2022-08-21T05:15:32;11.27;;;2.83;;
54929;SDS011;40833;53.238;6.576;2022-08-21T05:17:57;9.93;;;3.67;;
54929;SDS011;40833;53.238;6.576;2022-08-21T05:20:23;11.17;;;3.10;;
54929;SDS011;40833;53.238;6.576;2022-08-21T05:22:49;9.77;;;3.33;;
54929;SDS011;40833;53.238;6.576;2022-08-21T05:25:15;8.57;;;3.30;;
54929;SDS011;40833;53.238;6.576;2022-08-21T05:27:41;8.60;;;4.00;;
54929;SDS011;40833;53.238;6.576;2022-08-21T05:30:07;10.30;;;2.73;;
54929;SDS011;40833;53.238;6.576;2022-08-21T05:32:34;8.27;;;3.17;;
54929;SDS011;40833;53.238;6.576;2022-08-21T05:35:01;11.70;;;3.30;;
54929;SDS011;40833;53.238;6.576;2022-08-21T05:37:28;11.10;;;3.00;;
54929;SDS011;40833;53.238;6.576;2022-08-21T05:39:54;7.47;;;2.90;;
54929;SDS011;40833;53.238;6.576;2022-08-21T05:42:20;12.73;;;3.47;;
54929;SDS011;40833;53.238;6.576;2022-08-21T05:44:45;12.27;;;3.50;;
54929;SDS011;40833;53.238;6.576;2022-08-21T05:47:11;9.90;;;3.73;;
54929;SDS011;40833;53.238;6.576;2022-08-21T05:49:37;13.20;;;2.97;;
54929;SDS011;40833;53.238;6.576;2022-08-21T05:52:03;8.23;;;3.57;;
54929;SDS011;40833;53.238;6.576;2022-08-21T05:54:31;15.80;;;3.83;;
54929;SDS011;40833;53.238;6.576;2022-08-21T05:56:57;12.43;;;3.63;;
54929;SDS011;40833;53.238;6.576;2022-08-21T05:59:23;13.03;;;3.63;;
54929;SDS011;40833;53.238;6.576;2022-08-21T06:01:49;10.87;;;3.40;;
54929;SDS011;40833;53.238;6.576;2022-08-21T06:04:16;7.83;;;3.10;;
54929;SDS011;40833;53.238;6.576;2022-08-21T06:06:41;9.67;;;3.60;;
54929;SDS011;40833;53.238;6.576;2022-08-21T06:09:07;9.33;;;3.83;;
54929;SDS011;40833;53.238;6.576;2022-08-21T06:11:33;6.27;;;3.20;;
54929;SDS011;40833;53.238;6.576;2022-08-21T06:13:59;12.23;;;3.40;;
54929;SDS011;40833;53.238;6.576;2022-08-21T06:16:25;11.30;;;3.47;;
54929;SDS011;40833;53.238;6.576;2022-08-21T06:18:52;9.33;;;3.33;;
54929;SDS011;40833;53.238;6.576;2022-08-21T06:21:18;14.03;;;3.47;;
54929;SDS011;40833;53.238;6.576;2022-08-21T06:23:44;12.47;;;3.77;;
54929;SDS011;40833;53.238;6.576;2022-08-21T06:26:11;9.20;;;3.43;;
54929;SDS011;40833;53.238;6.576;2022-08-21T06:28:39;11.63;;;3.43;;
54929;SDS011;40833;53.238;6.576;2022-08-21T06:31:12;9.30;;;2.87;;
54929;SDS011;40833;53.238;6.576;2022-08-21T06:33:43;8.60;;;2.83;;
54929;SDS011;40833;53.238;6.576;2022-08-21T06:36:10;16.43;;;3.63;;
54929;SDS011;40833;53.238;6.576;2022-08-21T06:38:36;13.77;;;3.23;;
54929;SDS011;40833;53.238;6.576;2022-08-21T06:41:02;13.27;;;3.37;;
54929;SDS011;40833;53.238;6.576;2022-08-21T06:43:29;8.40;;;2.67;;
54929;SDS011;40833;53.238;6.576;2022-08-21T06:45:55;14.10;;;3.60;;
54929;SDS011;40833;53.238;6.576;2022-08-21T06:48:21;12.47;;;3.50;;
54929;SDS011;40833;53.238;6.576;2022-08-21T06:50:48;9.10;;;2.90;;
54929;SDS011;40833;53.238;6.576;2022-08-21T06:53:15;8.47;;;2.73;;
54929;SDS011;40833;53.238;6.576;2022-08-21T06:55:42;10.00;;;2.50;;
54929;SDS011;40833;53.238;6.576;2022-08-21T06:58:08;12.80;;;3.60;;
54929;SDS011;40833;53.238;6.576;2022-08-21T07:00:37;10.67;;;2.50;;
54929;SDS011;40833;53.238;6.576;2022-08-21T07:03:04;10.80;;;2.17;;
54929;SDS011;40833;53.238;6.576;2022-08-21T07:05:30;10.70;;;2.50;;
54929;SDS011;40833;53.238;6.576;2022-08-21T07:07:56;10.63;;;2.30;;
54929;SDS011;40833;53.238;6.576;2022-08-21T07:10:23;7.33;;;1.93;;
54929;SDS011;40833;53.238;6.576;2022-08-21T07:12:50;9.37;;;2.03;;
54929;SDS011;40833;53.238;6.576;2022-08-21T07:15:17;10.30;;;3.00;;
54929;SDS011;40833;53.238;6.576;2022-08-21T07:17:43;13.27;;;1.90;;
54929;SDS011;40833;53.238;6.576;2022-08-21T07:20:09;10.57;;;1.90;;
54929;SDS011;40833;53.238;6.576;2022-08-21T07:22:35;9.53;;;1.43;;
54929;SDS011;40833;53.238;6.576;2022-08-21T07:25:03;9.87;;;2.00;;
54929;SDS011;40833;53.238;6.576;2022-08-21T07:27:30;11.50;;;2.40;;
54929;SDS011;40833;53.238;6.576;2022-08-21T07:29:56;9.80;;;1.60;;
54929;SDS011;40833;53.238;6.576;2022-08-21T07:32:22;11.70;;;2.30;;
54929;SDS011;40833;53.238;6.576;2022-08-21T07:34:48;10.70;;;1.67;;
54929;SDS011;40833;53.238;6.576;2022-08-21T07:37:14;12.90;;;1.93;;
54929;SDS011;40833;53.238;6.576;2022-08-21T07:39:40;6.97;;;1.17;;
54929;SDS011;40833;53.238;6.576;2022-08-21T07:42:06;10.77;;;1.50;;
54929;SDS011;40833;53.238;6.576;2022-08-21T07:44:32;6.37;;;1.20;;
54929;SDS011;40833;53.238;6.576;2022-08-21T07:46:59;7.67;;;1.30;;
54929;SDS011;40833;53.238;6.576;2022-08-21T07:49:26;5.43;;;1.30;;
54929;SDS011;40833;53.238;6.576;2022-08-21T07:51:52;15.90;;;2.00;;
54929;SDS011;40833;53.238;6.576;2022-08-21T07:54:18;7.07;;;1.07;;
54929;SDS011;40833;53.238;6.576;2022-08-21T07:56:44;9.67;;;1.00;;
54929;SDS011;40833;53.238;6.576;2022-08-21T07:59:10;6.60;;;1.57;;
54929;SDS011;40833;53.238;6.576;2022-08-21T08:01:38;5.93;;;1.07;;
54929;SDS011;40833;53.238;6.576;2022-08-21T08:04:04;6.73;;;1.10;;
54929;SDS011;40833;53.238;6.576;2022-08-21T08:06:30;9.07;;;1.87;;
54929;SDS011;40833;53.238;6.576;2022-08-21T08:09:00;8.98;;;1.30;;
54929;SDS011;40833;53.238;6.576;2022-08-21T08:11:28;9.02;;;1.20;;
54929;SDS011;40833;53.238;6.576;2022-08-21T08:13:54;11.07;;;1.90;;
54929;SDS011;40833;53.238;6.576;2022-08-21T08:16:22;6.78;;;1.85;;
54929;SDS011;40833;53.238;6.576;2022-08-21T08:18:48;10.03;;;1.30;;
54929;SDS011;40833;53.238;6.576;2022-08-21T08:21:14;9.30;;;1.45;;
54929;SDS011;40833;53.238;6.576;2022-08-21T08:23:40;7.07;;;1.00;;
54929;SDS011;40833;53.238;6.576;2022-08-21T08:26:05;8.10;;;1.50;;
54929;SDS011;40833;53.238;6.576;2022-08-21T08:28:31;13.10;;;1.42;;
54929;SDS011;40833;53.238;6.576;2022-08-21T08:30:58;9.48;;;1.50;;
54929;SDS011;40833;53.238;6.576;2022-08-21T08:33:24;7.65;;;1.27;;
54929;SDS011;40833;53.238;6.576;2022-08-21T08:35:51;11.95;;;1.70;;
54929;SDS011;40833;53.238;6.576;2022-08-21T08:38:17;10.30;;;1.65;;
54929;SDS011;40833;53.238;6.576;2022-08-21T08:43:28;9.68;;;1.95;;
54929;SDS011;40833;53.238;6.576;2022-08-21T08:45:55;13.82;;;1.40;;
54929;SDS011;40833;53.238;6.576;2022-08-21T08:48:39;11.32;;;1.23;;
54929;SDS011;40833;53.238;6.576;2022-08-21T08:54:15;14.05;;;2.38;;
54929;SDS011;40833;53.238;6.576;2022-08-21T08:56:46;11.43;;;2.35;;
54929;SDS011;40833;53.238;6.576;2022-08-21T08:59:18;11.98;;;2.20;;
54929;SDS011;40833;53.238;6.576;2022-08-21T09:01:47;11.70;;;1.77;;
54929;SDS011;40833;53.238;6.576;2022-08-21T09:04:13;9.70;;;2.28;;
54929;SDS011;40833;53.238;6.576;2022-08-21T09:06:54;10.15;;;1.90;;
54929;SDS011;40833;53.238;6.576;2022-08-21T09:09:36;12.95;;;2.85;;
54929;SDS011;40833;53.238;6.576;2022-08-21T09:12:31;10.32;;;2.22;;
54929;SDS011;40833;53.238;6.576;2022-08-21T09:18:09;10.85;;;1.80;;
54929;SDS011;40833;53.238;6.576;2022-08-21T09:23:48;11.52;;;1.85;;
54929;SDS011;40833;53.238;6.576;2022-08-21T09:26:25;10.30;;;1.55;;
54929;SDS011;40833;53.238;6.576;2022-08-21T09:28:57;6.80;;;1.63;;
54929;SDS011;40833;53.238;6.576;2022-08-21T09:31:32;12.02;;;2.30;;
54929;SDS011;40833;53.238;6.576;2022-08-21T09:34:03;14.18;;;1.92;;
54929;SDS011;40833;53.238;6.576;2022-08-21T09:36:38;11.60;;;1.75;;
54929;SDS011;40833;53.238;6.576;2022-08-21T09:39:04;12.35;;;1.48;;
54929;SDS011;40833;53.238;6.576;2022-08-21T09:41:32;12.13;;;2.10;;
54929;SDS011;40833;53.238;6.576;2022-08-21T09:44:00;9.25;;;1.42;;
54929;SDS011;40833;53.238;6.576;2022-08-21T09:46:27;10.32;;;1.20;;
54929;SDS011;40833;53.238;6.576;2022-08-21T09:48:54;10.15;;;2.10;;
54929;SDS011;40833;53.238;6.576;2022-08-21T09:51:27;9.15;;;1.52;;
54929;SDS011;40833;53.238;6.576;2022-08-21T09:56:37;11.50;;;1.75;;
54929;SDS011;40833;53.238;6.576;2022-08-21T09:59:34;8.43;;;1.17;;
54929;SDS011;40833;53.238;6.576;2022-08-21T10:02:14;6.68;;;1.33;;
54929;SDS011;40833;53.238;6.576;2022-08-21T10:04:55;7.85;;;1.20;;
54929;SDS011;40833;53.238;6.576;2022-08-21T10:07:32;10.40;;;1.38;;
54929;SDS011;40833;53.238;6.576;2022-08-21T10:10:13;10.77;;;1.55;;
54929;SDS011;40833;53.238;6.576;2022-08-21T10:12:42;10.55;;;1.80;;
54929;SDS011;40833;53.238;6.576;2022-08-21T10:15:32;9.55;;;1.33;;
54929;SDS011;40833;53.238;6.576;2022-08-21T10:18:24;7.88;;;1.73;;
54929;SDS011;40833;53.238;6.576;2022-08-21T10:31:52;7.57;;;1.42;;
54929;SDS011;40833;53.238;6.576;2022-08-21T10:40:00;3.88;;;0.95;;
54929;SDS011;40833;53.238;6.576;2022-08-21T10:45:25;4.93;;;1.17;;
54929;SDS011;40833;53.238;6.576;2022-08-21T10:48:12;6.93;;;1.38;;
54929;SDS011;40833;53.238;6.576;2022-08-21T10:56:12;4.90;;;0.80;;
54929;SDS011;40833;53.238;6.576;2022-08-21T10:59:39;7.43;;;1.50;;
54929;SDS011;40833;53.238;6.576;2022-08-21T11:01:50;8.43;;;1.67;;
54929;SDS011;40833;53.238;6.576;2022-08-21T11:04:28;8.25;;;1.35;;
54929;SDS011;40833;53.238;6.576;2022-08-21T11:07:00;8.23;;;1.38;;
54929;SDS011;40833;53.238;6.576;2022-08-21T11:09:31;7.85;;;1.23;;
54929;SDS011;40833;53.238;6.576;2022-08-21T11:11:59;9.48;;;1.70;;
54929;SDS011;40833;53.238;6.576;2022-08-21T11:14:46;8.70;;;1.52;;
54929;SDS011;40833;53.238;6.576;2022-08-21T11:17:22;7.45;;;1.45;;
54929;SDS011;40833;53.238;6.576;2022-08-21T11:20:20;12.23;;;1.40;;
54929;SDS011;40833;53.238;6.576;2022-08-21T11:23:15;9.10;;;1.77;;
54929;SDS011;40833;53.238;6.576;2022-08-21T11:25:47;7.65;;;1.58;;
54929;SDS011;40833;53.238;6.576;2022-08-21T11:28:19;9.07;;;1.58;;
54929;SDS011;40833;53.238;6.576;2022-08-21T11:31:11;5.47;;;0.93;;
54929;SDS011;40833;53.238;6.576;2022-08-21T11:44:48;11.93;;;1.27;;
54929;SDS011;40833;53.238;6.576;2022-08-21T11:47:33;6.68;;;1.35;;
54929;SDS011;40833;53.238;6.576;2022-08-21T11:50:24;8.15;;;1.83;;
54929;SDS011;40833;53.238;6.576;2022-08-21T11:55:32;11.15;;;2.20;;
54929;SDS011;40833;53.238;6.576;2022-08-21T11:58:11;7.65;;;2.00;;
54929;SDS011;40833;53.238;6.576;2022-08-21T12:00:52;8.15;;;1.35;;
54929;SDS011;40833;53.238;6.576;2022-08-21T12:05:56;7.78;;;1.70;;
54929;SDS011;40833;53.238;6.576;2022-08-21T12:08:28;7.28;;;1.20;;
54929;SDS011;40833;53.238;6.576;2022-08-21T12:13:33;6.85;;;1.33;;
54929;SDS011;40833;53.238;6.576;2022-08-21T12:16:08;9.55;;;1.60;;
54929;SDS011;40833;53.238;6.576;2022-08-21T12:18:42;4.43;;;1.08;;
54929;SDS011;40833;53.238;6.576;2022-08-21T12:21:20;7.38;;;1.08;;
54929;SDS011;40833;53.238;6.576;2022-08-21T12:24:15;8.23;;;1.30;;
54929;SDS011;40833;53.238;6.576;2022-08-21T12:27:28;5.85;;;1.10;;
54929;SDS011;40833;53.238;6.576;2022-08-21T12:30:01;6.68;;;1.40;;
54929;SDS011;40833;53.238;6.576;2022-08-21T12:35:10;7.07;;;1.30;;
54929;SDS011;40833;53.238;6.576;2022-08-21T12:37:43;7.28;;;1.08;;
54929;SDS011;40833;53.238;6.576;2022-08-21T12:40:14;8.18;;;1.15;;
54929;SDS011;40833;53.238;6.576;2022-08-21T12:43:02;6.53;;;1.30;;
54929;SDS011;40833;53.238;6.576;2022-08-21T12:45:36;6.68;;;1.05;;
54929;SDS011;40833;53.238;6.576;2022-08-21T12:48:14;6.20;;;1.00;;
54929;SDS011;40833;53.238;6.576;2022-08-21T12:50:48;7.63;;;1.05;;
54929;SDS011;40833;53.238;6.576;2022-08-21T12:55:56;8.10;;;1.25;;
54929;SDS011;40833;53.238;6.576;2022-08-21T12:58:26;3.08;;;0.80;;
54929;SDS011;40833;53.238;6.576;2022-08-21T13:01:00;3.72;;;0.80;;
54929;SDS011;40833;53.238;6.576;2022-08-21T13:03:29;3.80;;;0.70;;
54929;SDS011;40833;53.238;6.576;2022-08-21T13:05:56;2.95;;;0.93;;
54929;SDS011;40833;53.238;6.576;2022-08-21T13:08:24;3.67;;;0.55;;
54929;SDS011;40833;53.238;6.576;2022-08-21T13:10:56;6.35;;;0.77;;
54929;SDS011;40833;53.238;6.576;2022-08-21T13:13:26;5.55;;;0.70;;
54929;SDS011;40833;53.238;6.576;2022-08-21T13:16:02;4.72;;;0.60;;
54929;SDS011;40833;53.238;6.576;2022-08-21T13:18:31;5.80;;;0.98;;
54929;SDS011;40833;53.238;6.576;2022-08-21T13:21:06;3.25;;;0.77;;
54929;SDS011;40833;53.238;6.576;2022-08-21T13:23:36;3.78;;;0.63;;
54929;SDS011;40833;53.238;6.576;2022-08-21T13:26:11;5.80;;;0.75;;
54929;SDS011;40833;53.238;6.576;2022-08-21T13:28:41;4.65;;;0.93;;
54929;SDS011;40833;53.238;6.576;2022-08-21T13:31:09;4.78;;;0.95;;
54929;SDS011;40833;53.238;6.576;2022-08-21T13:33:35;5.60;;;0.98;;
54929;SDS011;40833;53.238;6.576;2022-08-21T13:36:11;4.60;;;0.70;;
54929;SDS011;40833;53.238;6.576;2022-08-21T13:38:50;3.13;;;0.65;;
54929;SDS011;40833;53.238;6.576;2022-08-21T13:44:02;4.82;;;0.98;;
54929;SDS011;40833;53.238;6.576;2022-08-21T13:46:31;4.55;;;1.05;;
54929;SDS011;40833;53.238;6.576;2022-08-21T13:48:59;5.72;;;0.90;;
54929;SDS011;40833;53.238;6.576;2022-08-21T13:51:26;4.88;;;0.82;;
54929;SDS011;40833;53.238;6.576;2022-08-21T13:53:53;5.57;;;0.90;;
54929;SDS011;40833;53.238;6.576;2022-08-21T13:59:09;4.40;;;0.73;;
54929;SDS011;40833;53.238;6.576;2022-08-21T14:01:39;10.63;;;1.30;;
54929;SDS011;40833;53.238;6.576;2022-08-21T14:04:18;3.78;;;0.80;;
54929;SDS011;40833;53.238;6.576;2022-08-21T14:06:49;5.55;;;0.95;;
54929;SDS011;40833;53.238;6.576;2022-08-21T14:12:14;6.32;;;0.90;;
54929;SDS011;40833;53.238;6.576;2022-08-21T14:14:42;6.03;;;0.75;;
54929;SDS011;40833;53.238;6.576;2022-08-21T14:17:10;3.67;;;0.73;;
54929;SDS011;40833;53.238;6.576;2022-08-21T14:19:43;4.82;;;1.13;;
54929;SDS011;40833;53.238;6.576;2022-08-21T14:22:22;6.68;;;0.73;;
54929;SDS011;40833;53.238;6.576;2022-08-21T14:27:44;5.40;;;0.70;;
54929;SDS011;40833;53.238;6.576;2022-08-21T14:30:20;6.60;;;1.10;;
54929;SDS011;40833;53.238;6.576;2022-08-21T14:32:56;7.22;;;0.95;;
54929;SDS011;40833;53.238;6.576;2022-08-21T14:35:23;7.93;;;0.95;;
54929;SDS011;40833;53.238;6.576;2022-08-21T14:37:49;8.93;;;1.17;;
54929;SDS011;40833;53.238;6.576;2022-08-21T14:40:16;6.85;;;1.00;;
54929;SDS011;40833;53.238;6.576;2022-08-21T14:42:43;4.65;;;0.73;;
54929;SDS011;40833;53.238;6.576;2022-08-21T14:45:31;8.75;;;0.90;;
54929;SDS011;40833;53.238;6.576;2022-08-21T14:47:57;11.23;;;1.13;;
54929;SDS011;40833;53.238;6.576;2022-08-21T14:50:24;7.88;;;1.70;;
54929;SDS011;40833;53.238;6.576;2022-08-21T14:52:52;6.97;;;0.90;;
54929;SDS011;40833;53.238;6.576;2022-08-21T14:55:18;8.57;;;1.13;;
54929;SDS011;40833;53.238;6.576;2022-08-21T14:57:45;4.88;;;1.23;;
54929;SDS011;40833;53.238;6.576;2022-08-21T15:00:13;9.93;;;1.65;;
54929;SDS011;40833;53.238;6.576;2022-08-21T15:02:42;8.43;;;1.25;;
54929;SDS011;40833;53.238;6.576;2022-08-21T15:05:11;7.03;;;1.55;;
54929;SDS011;40833;53.238;6.576;2022-08-21T15:07:38;6.82;;;1.98;;
54929;SDS011;40833;53.238;6.576;2022-08-21T15:10:04;10.73;;;1.20;;
54929;SDS011;40833;53.238;6.576;2022-08-21T15:12:34;8.55;;;1.38;;
54929;SDS011;40833;53.238;6.576;2022-08-21T15:15:00;11.32;;;1.63;;
54929;SDS011;40833;53.238;6.576;2022-08-21T15:17:26;5.15;;;1.13;;
54929;SDS011;40833;53.238;6.576;2022-08-21T15:28:34;13.48;;;1.40;;
54929;SDS011;40833;53.238;6.576;2022-08-21T15:31:00;6.88;;;1.05;;
54929;SDS011;40833;53.238;6.576;2022-08-21T15:33:26;5.65;;;1.25;;
54929;SDS011;40833;53.238;6.576;2022-08-21T15:35:52;6.50;;;1.92;;
54929;SDS011;40833;53.238;6.576;2022-08-21T15:38:17;4.30;;;0.90;;
54929;SDS011;40833;53.238;6.576;2022-08-21T15:43:22;9.10;;;1.52;;
54929;SDS011;40833;53.238;6.576;2022-08-21T15:48:07;5.30;;;1.13;;
54929;SDS011;40833;53.238;6.576;2022-08-21T15:50:33;6.50;;;0.90;;
54929;SDS011;40833;53.238;6.576;2022-08-21T15:52:59;7.25;;;1.70;;
54929;SDS011;40833;53.238;6.576;2022-08-21T15:55:24;6.97;;;0.98;;
54929;SDS011;40833;53.238;6.576;2022-08-21T15:57:51;7.72;;;0.95;;
54929;SDS011;40833;53.238;6.576;2022-08-21T16:00:19;6.93;;;1.45;;
54929;SDS011;40833;53.238;6.576;2022-08-21T16:02:48;7.97;;;1.10;;
54929;SDS011;40833;53.238;6.576;2022-08-21T16:05:18;7.05;;;1.15;;
54929;SDS011;40833;53.238;6.576;2022-08-21T16:07:45;6.57;;;0.85;;
54929;SDS011;40833;53.238;6.576;2022-08-21T16:10:12;6.32;;;1.30;;
54929;SDS011;40833;53.238;6.576;2022-08-21T16:12:41;4.22;;;0.68;;
54929;SDS011;40833;53.238;6.576;2022-08-21T16:15:13;10.02;;;1.70;;
54929;SDS011;40833;53.238;6.576;2022-08-21T16:17:41;6.95;;;1.27;;
54929;SDS011;40833;53.238;6.576;2022-08-21T16:20:19;5.53;;;1.05;;
54929;SDS011;40833;53.238;6.576;2022-08-21T16:22:49;7.85;;;1.00;;
54929;SDS011;40833;53.238;6.576;2022-08-21T16:25:15;7.22;;;0.90;;